createdAt,value
2018-09-13T00:01:41.126Z,1.23
2018-09-13T00:04:09.465Z,0.90
2018-09-13T00:06:38.663Z,1.13
2018-09-13T00:09:07.800Z,1.00
2018-09-13T00:11:36.194Z,1.10
2018-09-13T00:14:04.620Z,1.10
2018-09-13T00:16:33.977Z,1.43
2018-09-13T00:19:02.367Z,1.10
2018-09-13T00:21:30.726Z,1.20
2018-09-13T00:23:59.125Z,1.10
2018-09-13T00:26:27.461Z,1.60
2018-09-13T00:28:55.803Z,1.10
2018-09-13T00:31:24.319Z,1.17
2018-09-13T00:33:53.470Z,1.40
2018-09-13T00:36:21.862Z,1.40
2018-09-13T00:38:50.170Z,1.20
2018-09-13T00:41:18.509Z,1.30
2018-09-13T00:43:46.867Z,1.10
2018-09-13T00:46:15.249Z,1.50
2018-09-13T00:48:43.588Z,1.20
2018-09-13T00:51:11.951Z,1.10
2018-09-13T00:53:41.064Z,1.17
2018-09-13T00:56:09.427Z,1.40
2018-09-13T00:58:38.640Z,1.40
2018-09-13T01:01:06.907Z,1.00
2018-09-13T01:03:35.279Z,1.33
2018-09-13T01:06:04.377Z,1.20
2018-09-13T01:08:34.415Z,1.17
2018-09-13T01:11:02.753Z,1.10
2018-09-13T01:13:31.227Z,1.20
2018-09-13T01:15:59.685Z,1.37
2018-09-13T01:18:28.062Z,1.37
2018-09-13T01:20:56.404Z,1.30
2018-09-13T01:23:25.485Z,1.37
2018-09-13T01:25:54.709Z,1.40
2018-09-13T01:28:23.091Z,1.33
2018-09-13T01:30:51.473Z,1.50
2018-09-13T01:33:19.808Z,1.40
2018-09-13T01:35:48.146Z,1.30
2018-09-13T01:38:16.651Z,1.20
2018-09-13T01:40:45.008Z,1.40
2018-09-13T01:43:13.388Z,1.50
2018-09-13T01:45:41.734Z,1.23
2018-09-13T01:48:10.839Z,1.70
2018-09-13T01:50:39.174Z,1.20
2018-09-13T01:53:07.546Z,1.20
2018-09-13T01:55:35.945Z,1.30
2018-09-13T01:58:04.884Z,1.27
2018-09-13T02:00:33.234Z,1.20
2018-09-13T02:03:02.320Z,1.00
2018-09-13T02:05:31.522Z,1.10
2018-09-13T02:08:00.616Z,1.80
2018-09-13T02:10:29.760Z,1.07
2018-09-13T02:12:58.114Z,1.20
2018-09-13T02:15:26.489Z,1.20
2018-09-13T02:17:54.872Z,1.23
2018-09-13T02:20:23.266Z,1.20
2018-09-13T02:22:51.608Z,1.07
2018-09-13T02:25:20.774Z,1.00
2018-09-13T02:27:49.112Z,1.30
2018-09-13T02:30:17.450Z,1.60
2018-09-13T02:32:45.815Z,1.60
2018-09-13T02:35:14.206Z,1.50
2018-09-13T02:37:42.592Z,1.47
2018-09-13T02:40:11.732Z,1.47
2018-09-13T02:42:40.064Z,1.50
2018-09-13T02:45:08.444Z,1.10
2018-09-13T02:47:36.826Z,1.47
2018-09-13T02:50:06.005Z,1.53
2018-09-13T02:52:34.440Z,1.10
2018-09-13T02:55:02.821Z,1.23
2018-09-13T02:57:31.181Z,1.20
2018-09-13T02:59:59.805Z,1.00
2018-09-13T03:02:28.226Z,1.27
2018-09-13T03:04:56.541Z,1.40
2018-09-13T03:07:24.877Z,1.10
2018-09-13T03:09:53.249Z,1.40
2018-09-13T03:12:21.596Z,1.00
2018-09-13T03:14:50.021Z,1.40
2018-09-13T03:17:18.391Z,1.20
2018-09-13T03:19:46.725Z,1.13
2018-09-13T03:22:15.136Z,1.30
2018-09-13T03:24:43.545Z,1.20
2018-09-13T03:27:11.978Z,1.13
2018-09-13T03:29:40.463Z,0.90
2018-09-13T03:32:08.840Z,1.10
2018-09-13T03:34:37.180Z,1.30
2018-09-13T03:37:05.513Z,1.10
2018-09-13T03:39:33.833Z,1.40
2018-09-13T03:42:02.248Z,1.20
2018-09-13T03:44:30.734Z,1.10
2018-09-13T03:46:59.069Z,1.40
2018-09-13T03:49:27.422Z,1.20
2018-09-13T03:51:55.810Z,1.27
2018-09-13T03:54:24.179Z,1.60
2018-09-13T03:56:52.583Z,1.30
2018-09-13T03:59:20.946Z,1.13
2018-09-13T04:01:49.361Z,1.53
2018-09-13T04:04:17.885Z,1.60
2018-09-13T04:06:46.218Z,1.60
2018-09-13T04:09:14.641Z,1.57
2018-09-13T04:11:42.977Z,1.63
2018-09-13T04:14:11.980Z,1.47
2018-09-13T04:16:40.312Z,1.07
2018-09-13T04:19:08.826Z,1.43
2018-09-13T04:21:37.964Z,1.50
2018-09-13T04:24:06.432Z,1.63
2018-09-13T04:26:34.987Z,1.50
2018-09-13T04:29:03.269Z,1.67
2018-09-13T04:31:31.600Z,1.70
2018-09-13T04:33:59.954Z,1.47
2018-09-13T04:36:28.292Z,2.60
2018-09-13T04:38:57.524Z,2.07
2018-09-13T04:41:25.919Z,1.87
2018-09-13T04:43:54.267Z,1.70
2018-09-13T04:46:22.622Z,2.10
2018-09-13T04:48:51.190Z,1.53
2018-09-13T04:51:19.608Z,2.00
2018-09-13T04:53:48.011Z,1.70
2018-09-13T04:56:16.452Z,1.70
2018-09-13T04:58:44.796Z,1.80
2018-09-13T05:01:13.165Z,2.30
2018-09-13T05:03:41.708Z,1.90
2018-09-13T05:06:10.844Z,2.37
2018-09-13T05:08:40.138Z,2.00
2018-09-13T05:11:08.648Z,1.77
2018-09-13T05:13:37.128Z,2.40
2018-09-13T05:16:07.296Z,6.20
2018-09-13T05:18:35.862Z,17.00
2018-09-13T05:21:04.996Z,4.87
2018-09-13T05:23:33.439Z,2.97
2018-09-13T05:26:01.800Z,2.53
2018-09-13T05:28:30.188Z,2.33
2018-09-13T05:30:58.606Z,2.20
2018-09-13T05:33:27.000Z,2.30
2018-09-13T05:35:55.374Z,2.23
2018-09-13T05:38:23.726Z,2.40
2018-09-13T05:40:52.886Z,2.33
2018-09-13T05:43:21.224Z,1.90
2018-09-13T05:45:49.599Z,2.53
2018-09-13T05:48:17.938Z,2.20
2018-09-13T05:50:46.394Z,2.07
2018-09-13T05:53:14.794Z,2.10
2018-09-13T05:55:43.164Z,1.90
2018-09-13T05:58:11.581Z,2.27
2018-09-13T06:00:40.751Z,1.80
2018-09-13T06:03:09.140Z,1.90
2018-09-13T06:05:37.624Z,2.20
2018-09-13T06:08:06.809Z,2.30
2018-09-13T06:10:35.253Z,1.80
2018-09-13T06:13:03.582Z,1.73
2018-09-13T06:15:32.749Z,1.73
2018-09-13T06:18:01.090Z,1.70
2018-09-13T06:20:29.472Z,1.80
2018-09-13T06:22:57.870Z,1.77
2018-09-13T06:25:26.212Z,2.03
2018-09-13T06:27:55.348Z,2.20
2018-09-13T06:30:23.687Z,2.10
2018-09-13T06:32:52.869Z,2.00
2018-09-13T06:35:21.251Z,2.00
2018-09-13T06:37:49.607Z,2.17
2018-09-13T06:40:17.954Z,1.70
2018-09-13T06:42:46.456Z,1.90
2018-09-13T06:45:14.784Z,1.97
2018-09-13T06:47:43.942Z,1.77
2018-09-13T06:50:12.358Z,2.00
2018-09-13T06:52:41.475Z,2.30
2018-09-13T06:55:09.877Z,2.60
2018-09-13T06:57:38.234Z,1.80
2018-09-13T07:00:06.621Z,1.87
2018-09-13T07:02:35.991Z,2.30
2018-09-13T07:05:04.320Z,1.90
2018-09-13T07:07:32.664Z,2.00
2018-09-13T07:10:01.042Z,2.67
2018-09-13T07:12:29.393Z,3.23
2018-09-13T07:14:57.800Z,2.57
2018-09-13T07:17:26.986Z,2.03
2018-09-13T07:19:56.116Z,2.07
2018-09-13T07:22:24.442Z,2.00
2018-09-13T07:24:52.767Z,2.47
2018-09-13T07:27:21.138Z,1.90
2018-09-13T07:29:49.506Z,1.90
2018-09-13T07:32:17.896Z,2.20
2018-09-13T07:34:46.283Z,1.90
2018-09-13T07:37:14.668Z,2.10
2018-09-13T07:39:43.003Z,2.10
2018-09-13T07:42:11.546Z,2.23
2018-09-13T07:44:39.935Z,2.13
2018-09-13T07:47:08.286Z,1.73
2018-09-13T07:49:36.768Z,2.00
2018-09-13T07:52:05.033Z,2.20
2018-09-13T07:54:33.442Z,2.10
2018-09-13T07:57:01.813Z,1.93
2018-09-13T07:59:30.170Z,1.90
2018-09-13T08:01:59.409Z,1.70
2018-09-13T08:04:29.262Z,2.00
2018-09-13T08:06:58.382Z,2.00
2018-09-13T08:09:26.795Z,2.10
2018-09-13T08:11:55.223Z,1.80
2018-09-13T08:14:23.511Z,1.97
2018-09-13T08:16:52.434Z,2.20
2018-09-13T08:19:20.786Z,2.10
2018-09-13T08:21:49.378Z,2.43
2018-09-13T08:24:17.678Z,2.20
2018-09-13T08:26:46.035Z,2.37
2018-09-13T08:29:14.402Z,1.93
2018-09-13T08:31:42.717Z,2.10
2018-09-13T08:34:11.096Z,2.40
2018-09-13T08:36:39.438Z,2.10
2018-09-13T08:39:07.916Z,2.10
2018-09-13T08:41:37.020Z,2.23
2018-09-13T08:44:05.398Z,2.00
2018-09-13T08:46:33.715Z,5.10
2018-09-13T08:49:02.082Z,5.07
2018-09-13T08:51:30.546Z,3.37
2018-09-13T08:53:58.849Z,2.37
2018-09-13T08:56:27.213Z,2.07
2018-09-13T08:58:55.536Z,2.30
2018-09-13T09:01:23.952Z,2.07
2018-09-13T09:03:52.356Z,2.57
2018-09-13T09:06:20.903Z,2.27
2018-09-13T09:08:49.214Z,2.23
2018-09-13T09:11:17.564Z,2.67
2018-09-13T09:13:45.907Z,2.10
2018-09-13T09:16:14.269Z,2.13
2018-09-13T09:18:42.627Z,2.37
2018-09-13T09:21:10.977Z,5.57
2018-09-13T09:23:40.074Z,4.30
2018-09-13T09:26:08.463Z,2.53
2018-09-13T09:28:36.808Z,2.10
2018-09-13T09:31:05.258Z,2.20
2018-09-13T09:33:33.668Z,1.83
2018-09-13T09:36:02.018Z,1.90
2018-09-13T09:38:30.358Z,2.10
2018-09-13T09:40:58.731Z,1.80
2018-09-13T09:43:27.856Z,1.50
2018-09-13T09:45:56.214Z,1.73
2018-09-13T09:48:24.580Z,1.97
2018-09-13T09:50:53.678Z,1.90
2018-09-13T09:53:22.796Z,1.90
2018-09-13T09:55:51.134Z,2.17
2018-09-13T09:58:19.562Z,1.70
2018-09-13T10:00:47.937Z,1.90
2018-09-13T10:03:16.282Z,2.00
2018-09-13T10:05:45.511Z,2.03
2018-09-13T10:08:13.966Z,1.57
2018-09-13T10:10:42.498Z,1.60
2018-09-13T10:13:10.868Z,1.87
2018-09-13T10:15:39.334Z,2.00
2018-09-13T10:27:08.281Z,2.10
2018-09-13T10:47:17.451Z,2.10
2018-09-13T10:49:45.787Z,1.87
2018-09-13T10:52:14.328Z,1.90
2018-09-13T10:54:42.622Z,9.93
2018-09-13T10:57:10.958Z,7.30
2018-09-13T10:59:39.352Z,2.50
2018-09-13T11:02:07.715Z,1.67
2018-09-13T11:04:36.115Z,1.80
2018-09-13T11:07:05.203Z,1.80
2018-09-13T11:09:33.696Z,1.63
2018-09-13T11:12:02.224Z,1.57
2018-09-13T11:14:30.588Z,1.83
2018-09-13T11:16:59.118Z,1.80
2018-09-13T11:19:27.562Z,1.65
2018-09-13T11:21:56.073Z,1.57
2018-09-13T11:24:24.546Z,1.80
2018-09-13T11:26:52.892Z,1.90
2018-09-13T11:29:21.355Z,1.83
2018-09-13T11:31:49.704Z,1.90
2018-09-13T11:34:18.250Z,1.97
2018-09-13T11:36:46.560Z,1.90
2018-09-13T11:39:14.947Z,1.75
2018-09-13T11:41:43.306Z,2.00
2018-09-13T11:44:17.501Z,1.83
2018-09-13T11:46:46.610Z,1.67
2018-09-13T11:49:15.844Z,1.70
2018-09-13T11:51:44.312Z,1.90
2018-09-13T11:54:12.634Z,1.67
2018-09-13T11:56:41.039Z,1.87
2018-09-13T11:59:10.159Z,1.80
2018-09-13T12:01:38.527Z,1.67
2018-09-13T12:04:07.649Z,1.83
2018-09-13T12:06:36.204Z,5.18
2018-09-13T12:09:04.576Z,5.65
2018-09-13T12:11:32.994Z,2.40
2018-09-13T12:14:01.348Z,1.90
2018-09-13T12:16:30.605Z,2.05
2018-09-13T12:18:58.948Z,1.70
2018-09-13T12:21:27.268Z,1.70
2018-09-13T12:23:55.662Z,1.40
2018-09-13T12:26:24.062Z,1.40
2018-09-13T12:28:53.218Z,1.70
2018-09-13T12:31:22.027Z,2.00
2018-09-13T12:33:50.490Z,1.80
2018-09-13T12:36:18.823Z,2.30
2018-09-13T12:38:47.217Z,1.87
2018-09-13T12:41:15.573Z,1.90
2018-09-13T12:43:44.706Z,1.60
2018-09-13T12:46:13.064Z,2.30
2018-09-13T12:48:41.444Z,2.57
2018-09-13T12:51:09.780Z,2.70
2018-09-13T12:53:38.122Z,2.60
2018-09-13T12:56:06.583Z,2.20
2018-09-13T12:58:35.729Z,2.50
2018-09-13T13:01:04.154Z,2.23
2018-09-13T13:03:32.778Z,2.07
2018-09-13T13:06:01.135Z,2.23
2018-09-13T13:08:29.510Z,2.33
2018-09-13T13:10:57.952Z,2.73
2018-09-13T13:13:26.393Z,2.30
2018-09-13T13:15:54.852Z,7.07
2018-09-13T13:18:23.889Z,4.13
2018-09-13T13:20:52.293Z,2.50
2018-09-13T13:23:20.705Z,2.10
2018-09-13T13:25:49.063Z,2.00
2018-09-13T13:28:18.795Z,2.03
2018-09-13T13:30:47.118Z,38.63
2018-09-13T13:33:15.522Z,16.73
2018-09-13T13:35:44.650Z,4.33
2018-09-13T13:38:13.025Z,2.00
2018-09-13T13:40:41.659Z,2.23
2018-09-13T13:43:10.028Z,2.00
2018-09-13T13:45:38.436Z,2.45
2018-09-13T13:48:06.808Z,2.10
2018-09-13T13:50:35.382Z,2.03
2018-09-13T13:53:03.799Z,1.80
2018-09-13T13:55:32.885Z,2.07
2018-09-13T13:58:02.164Z,2.07
2018-09-13T14:00:30.490Z,1.93
2018-09-13T14:02:58.841Z,1.90
2018-09-13T14:05:28.059Z,1.93
2018-09-13T14:07:57.195Z,1.83
2018-09-13T14:10:25.573Z,1.70
2018-09-13T14:12:54.005Z,2.33
2018-09-13T14:15:23.099Z,2.30
2018-09-13T14:17:52.244Z,2.53
2018-09-13T14:20:20.753Z,3.17
2018-09-13T14:22:49.071Z,2.17
2018-09-13T14:25:18.235Z,2.07
2018-09-13T14:27:47.338Z,2.37
2018-09-13T14:30:15.714Z,2.00
2018-09-13T14:32:44.080Z,2.03
2018-09-13T14:35:12.569Z,1.57
2018-09-13T14:37:41.017Z,1.40
2018-09-13T14:40:10.861Z,1.57
2018-09-13T14:42:39.951Z,1.33
2018-09-13T14:45:08.397Z,1.50
2018-09-13T14:47:36.861Z,1.60
2018-09-13T14:50:06.968Z,1.30
2018-09-13T14:52:36.143Z,1.17
2018-09-13T14:55:04.486Z,1.47
2018-09-13T14:57:32.809Z,1.20
2018-09-13T15:00:01.204Z,1.60
2018-09-13T15:02:30.339Z,1.50
2018-09-13T15:04:58.756Z,1.30
2018-09-13T15:07:27.181Z,1.40
2018-09-13T15:09:55.620Z,1.43
2018-09-13T15:12:24.886Z,1.50
2018-09-13T15:14:53.271Z,1.53
2018-09-13T15:17:21.861Z,1.20
2018-09-13T15:19:50.647Z,1.33
2018-09-13T15:22:19.003Z,1.40
2018-09-13T15:24:47.349Z,1.80
2018-09-13T15:27:15.683Z,1.40
2018-09-13T15:29:44.026Z,3.53
2018-09-13T15:32:13.248Z,4.10
2018-09-13T15:34:41.673Z,2.83
2018-09-13T15:37:10.117Z,1.60
2018-09-13T15:39:38.451Z,1.40
2018-09-13T15:42:08.329Z,1.17
2018-09-13T15:44:36.739Z,1.43
2018-09-13T15:47:06.237Z,1.70
2018-09-13T15:49:34.563Z,1.57
2018-09-13T15:52:02.908Z,1.33
2018-09-13T15:54:32.986Z,1.70
2018-09-13T15:57:01.295Z,1.70
2018-09-13T15:59:30.469Z,1.57
2018-09-13T16:01:58.823Z,1.57
2018-09-13T16:04:27.175Z,1.50
2018-09-13T16:06:55.537Z,1.73
2018-09-13T16:09:24.638Z,1.47
2018-09-13T16:11:53.011Z,1.50
2018-09-13T16:14:21.395Z,2.17
2018-09-13T16:16:50.544Z,3.77
2018-09-13T16:19:18.914Z,3.20
2018-09-13T16:21:47.247Z,2.10
2018-09-13T16:24:16.398Z,1.70
2018-09-13T16:26:44.730Z,1.30
2018-09-13T16:29:13.229Z,1.97
2018-09-13T16:31:41.559Z,1.60
2018-09-13T16:34:10.043Z,1.70
2018-09-13T16:36:38.455Z,1.57
2018-09-13T16:45:02.467Z,1.60
2018-09-13T16:50:22.699Z,1.97
2018-09-13T16:52:51.051Z,1.70
2018-09-13T16:55:20.269Z,1.90
2018-09-13T16:57:48.606Z,1.97
2018-09-13T17:00:16.986Z,1.80
2018-09-13T17:02:45.398Z,2.00
2018-09-13T17:05:13.749Z,2.00
2018-09-13T17:07:42.143Z,2.87
2018-09-13T17:10:11.158Z,5.50
2018-09-13T17:12:39.525Z,3.03
2018-09-13T17:15:08.628Z,2.20
2018-09-13T17:17:36.973Z,2.27
2018-09-13T17:20:05.411Z,1.90
2018-09-13T17:22:33.838Z,2.13
2018-09-13T17:25:02.205Z,2.00
2018-09-13T17:27:30.732Z,2.30
2018-09-13T17:30:00.200Z,2.00
2018-09-13T17:32:28.507Z,1.70
2018-09-13T17:34:56.877Z,2.07
2018-09-13T17:37:25.974Z,2.33
2018-09-13T17:39:54.368Z,2.20
2018-09-13T17:42:22.684Z,2.30
2018-09-13T17:44:51.045Z,2.77
2018-09-13T17:47:19.414Z,2.27
2018-09-13T17:49:47.865Z,2.40
2018-09-13T17:52:16.288Z,2.77
2018-09-13T17:54:44.662Z,2.80
2018-09-13T17:57:13.014Z,2.17
2018-09-13T17:59:42.110Z,2.60
2018-09-13T18:02:11.348Z,2.17
2018-09-13T18:04:39.692Z,2.83
2018-09-13T18:07:08.214Z,2.53
2018-09-13T18:09:36.733Z,2.33
2018-09-13T18:12:05.193Z,22.27
2018-09-13T18:14:33.614Z,31.37
2018-09-13T18:17:02.015Z,19.93
2018-09-13T18:19:30.389Z,6.50
2018-09-13T18:21:58.787Z,3.90
2018-09-13T18:24:27.342Z,3.30
2018-09-13T18:26:56.454Z,2.80
2018-09-13T18:29:24.903Z,2.70
2018-09-13T18:31:54.002Z,2.80
2018-09-13T18:34:23.277Z,2.67
2018-09-13T18:36:51.603Z,2.40
2018-09-13T18:39:19.961Z,2.57
2018-09-13T18:41:49.065Z,2.77
2018-09-13T18:44:18.195Z,3.30
2018-09-13T18:46:46.523Z,2.80
2018-09-13T18:49:14.876Z,3.40
2018-09-13T18:51:43.453Z,2.93
2018-09-13T18:54:12.011Z,2.80
2018-09-13T18:56:40.314Z,3.07
2018-09-13T18:59:08.756Z,2.60
2018-09-13T19:01:37.851Z,3.20
2018-09-13T19:04:07.258Z,50.63
2018-09-13T19:06:36.378Z,82.87
2018-09-13T19:09:05.629Z,26.73
2018-09-13T19:11:34.760Z,15.67
2018-09-13T19:14:03.149Z,6.53
2018-09-13T19:16:31.528Z,6.37
2018-09-13T19:18:59.879Z,5.63
2018-09-13T19:21:28.415Z,5.30
2018-09-13T19:23:56.790Z,4.77
2018-09-13T19:26:25.137Z,4.60
2018-09-13T19:28:53.482Z,4.40
2018-09-13T19:31:22.046Z,4.70
2018-09-13T19:33:50.380Z,4.30
2018-09-13T19:36:18.709Z,4.30
2018-09-13T19:38:47.176Z,4.37
2018-09-13T19:41:15.464Z,4.47
2018-09-13T19:43:43.816Z,4.67
2018-09-13T19:46:12.206Z,13.00
2018-09-13T19:48:41.279Z,13.20
2018-09-13T19:51:09.666Z,6.97
2018-09-13T19:53:38.029Z,4.87
2018-09-13T19:56:06.490Z,4.97
2018-09-13T19:58:35.584Z,4.67
2018-09-13T20:01:04.706Z,4.97
2018-09-13T20:03:33.057Z,5.73
2018-09-13T20:06:02.312Z,5.20
2018-09-13T20:08:30.742Z,4.97
2018-09-13T20:11:00.760Z,5.20
2018-09-13T20:13:29.878Z,6.10
2018-09-13T20:15:58.675Z,5.63
2018-09-13T20:18:27.091Z,6.33
2018-09-13T20:20:55.418Z,6.20
2018-09-13T20:23:23.776Z,5.93
2018-09-13T20:25:52.891Z,6.33
2018-09-13T20:28:21.306Z,6.40
2018-09-13T20:30:49.616Z,5.90
2018-09-13T20:33:17.989Z,5.77
2018-09-13T20:35:46.335Z,5.60
2018-09-13T20:38:14.809Z,5.83
2018-09-13T20:40:43.253Z,5.70
2018-09-13T20:43:12.387Z,5.37
2018-09-13T20:45:40.807Z,5.30
2018-09-13T20:48:10.679Z,5.30
2018-09-13T20:50:39.101Z,5.17
2018-09-13T20:53:07.449Z,5.77
2018-09-13T20:55:35.792Z,5.77
2018-09-13T20:58:04.870Z,5.90
2018-09-13T21:00:34.113Z,5.60
2018-09-13T21:03:02.387Z,5.97
2018-09-13T21:05:30.901Z,6.17
2018-09-13T21:07:59.305Z,5.60
2018-09-13T21:10:27.752Z,6.33
2018-09-13T21:12:56.097Z,5.60
2018-09-13T21:15:24.505Z,5.30
2018-09-13T21:17:52.822Z,6.00
2018-09-13T21:20:21.247Z,5.90
2018-09-13T21:22:49.631Z,6.10
2018-09-13T21:25:17.951Z,6.57
2018-09-13T21:27:46.306Z,6.10
2018-09-13T21:30:14.633Z,5.87
2018-09-13T21:32:43.802Z,5.40
2018-09-13T21:35:12.091Z,5.73
2018-09-13T21:37:41.476Z,5.80
2018-09-13T21:40:09.939Z,6.40
2018-09-13T21:42:38.351Z,5.90
2018-09-13T21:45:06.691Z,5.70
2018-09-13T21:47:35.031Z,5.70
2018-09-13T21:50:04.172Z,6.03
2018-09-13T21:52:32.525Z,5.80
2018-09-13T21:55:00.896Z,6.60
2018-09-13T21:57:29.300Z,6.30
2018-09-13T21:59:57.775Z,7.90
2018-09-13T22:02:26.143Z,6.67
2018-09-13T22:04:54.505Z,7.03
2018-09-13T22:07:22.863Z,7.50
2018-09-13T22:09:51.218Z,8.63
2018-09-13T22:12:19.569Z,9.30
2018-09-13T22:14:47.943Z,8.87
2018-09-13T22:17:16.379Z,8.27
2018-09-13T22:19:45.129Z,9.03
2018-09-13T22:22:13.465Z,9.53
2018-09-13T22:24:41.881Z,9.50
2018-09-13T22:27:10.234Z,9.17
2018-09-13T22:29:38.575Z,8.63
2018-09-13T22:32:06.971Z,9.40
2018-09-13T22:34:36.085Z,8.37
2018-09-13T22:37:05.423Z,7.63
2018-09-13T22:39:33.745Z,8.13
2018-09-13T22:42:02.203Z,7.70
2018-09-13T22:44:30.539Z,7.87
2018-09-13T22:46:58.915Z,8.00
2018-09-13T22:49:27.390Z,8.17
2018-09-13T22:51:56.478Z,8.20
2018-09-13T22:54:25.703Z,7.80
2018-09-13T22:56:54.034Z,6.80
2018-09-13T22:59:22.375Z,8.57
2018-09-13T23:01:50.831Z,8.40
2018-09-13T23:04:19.278Z,9.40
2018-09-13T23:06:47.604Z,9.00
2018-09-13T23:09:16.067Z,9.30
2018-09-13T23:11:44.429Z,8.43
2018-09-13T23:14:13.542Z,8.97
2018-09-13T23:16:49.574Z,9.23
2018-09-13T23:19:10.420Z,8.43
2018-09-13T23:21:38.770Z,10.23
2018-09-13T23:24:07.890Z,9.70
2018-09-13T23:26:36.222Z,10.47
2018-09-13T23:29:04.689Z,11.03
2018-09-13T23:31:33.135Z,10.40
2018-09-13T23:34:01.463Z,10.83
2018-09-13T23:36:29.821Z,10.77
2018-09-13T23:38:58.464Z,11.33
2018-09-13T23:41:26.716Z,11.20
2018-09-13T23:43:55.812Z,10.80
2018-09-13T23:46:24.930Z,10.80
2018-09-13T23:48:54.010Z,11.80
2018-09-13T23:51:23.244Z,12.17
2018-09-13T23:53:51.631Z,11.57
2018-09-13T23:56:19.982Z,11.00
2018-09-13T23:58:48.319Z,12.47
